sensor_id;sensor_type;location;lat;lon;timestamp;pressure;altitude;pressure_sealevel;temperature;humidity
33153;BME280;19509;43.862;26.176;2023-04-30T00:02:13;100532.22;;;5.62;82.31
33153;BME280;19509;43.862;26.176;2023-04-30T00:04:38;100527.59;;;5.56;82.48
33153;BME280;19509;43.862;26.176;2023-04-30T00:07:04;100524.75;;;5.57;82.83
33153;BME280;19509;43.862;26.176;2023-04-30T00:09:30;100525.94;;;5.55;82.69
33153;BME280;19509;43.862;26.176;2023-04-30T00:11:56;100532.38;;;5.60;82.83
33153;BME280;19509;43.862;26.176;2023-04-30T00:14:21;100527.72;;;5.62;82.82
33153;BME280;19509;43.862;26.176;2023-04-30T00:16:46;100530.22;;;5.64;82.58
33153;BME280;19509;43.862;26.176;2023-04-30T00:19:12;100531.41;;;5.61;82.57
33153;BME280;19509;43.862;26.176;2023-04-30T00:21:37;100525.59;;;5.58;82.66
33153;BME280;19509;43.862;26.176;2023-04-30T00:24:03;100527.59;;;5.56;82.66
33153;BME280;19509;43.862;26.176;2023-04-30T00:26:29;100522.25;;;5.56;82.66
33153;BME280;19509;43.862;26.176;2023-04-30T00:28:54;100523.78;;;5.50;82.53
33153;BME280;19509;43.862;26.176;2023-04-30T00:31:20;100523.44;;;5.53;82.49
33153;BME280;19509;43.862;26.176;2023-04-30T00:33:46;100516.31;;;5.45;82.36
33153;BME280;19509;43.862;26.176;2023-04-30T00:36:11;100523.03;;;5.41;82.68
33153;BME280;19509;43.862;26.176;2023-04-30T00:38:37;100525.41;;;5.36;82.90
33153;BME280;19509;43.862;26.176;2023-04-30T00:41:03;100518.88;;;5.39;82.88
33153;BME280;19509;43.862;26.176;2023-04-30T00:43:28;100522.59;;;5.30;83.15
33153;BME280;19509;43.862;26.176;2023-04-30T00:45:54;100521.16;;;5.27;83.23
33153;BME280;19509;43.862;26.176;2023-04-30T00:48:19;100520.59;;;5.32;83.39
33153;BME280;19509;43.862;26.176;2023-04-30T00:50:45;100528.31;;;5.27;83.28
33153;BME280;19509;43.862;26.176;2023-04-30T00:53:11;100516.56;;;5.36;83.12
33153;BME280;19509;43.862;26.176;2023-04-30T00:55:38;100513.53;;;5.39;83.00
33153;BME280;19509;43.862;26.176;2023-04-30T00:58:06;100514.78;;;5.28;83.21
33153;BME280;19509;43.862;26.176;2023-04-30T01:00:32;100511.66;;;5.25;83.41
33153;BME280;19509;43.862;26.176;2023-04-30T01:02:58;100516.66;;;5.19;83.38
33153;BME280;19509;43.862;26.176;2023-04-30T01:05:24;100514.88;;;5.12;83.26
33153;BME280;19509;43.862;26.176;2023-04-30T01:07:50;100515.38;;;5.15;83.29
33153;BME280;19509;43.862;26.176;2023-04-30T01:10:17;100513.88;;;5.13;83.33
33153;BME280;19509;43.862;26.176;2023-04-30T01:13:05;100514.06;;;5.11;83.02
33153;BME280;19509;43.862;26.176;2023-04-30T01:15:56;100517.31;;;4.98;83.73
33153;BME280;19509;43.862;26.176;2023-04-30T01:18:31;100515.94;;;5.03;83.66
33153;BME280;19509;43.862;26.176;2023-04-30T01:21:04;100510.31;;;4.97;83.69
33153;BME280;19509;43.862;26.176;2023-04-30T01:23:46;100507.84;;;4.96;83.59
33153;BME280;19509;43.862;26.176;2023-04-30T01:29:11;100502.13;;;4.99;83.34
33153;BME280;19509;43.862;26.176;2023-04-30T01:31:42;100502.00;;;4.92;83.72
33153;BME280;19509;43.862;26.176;2023-04-30T01:34:08;100503.50;;;4.95;83.78
33153;BME280;19509;43.862;26.176;2023-04-30T01:39:30;100497.41;;;4.78;84.06
33153;BME280;19509;43.862;26.176;2023-04-30T01:42:16;100499.09;;;4.79;84.39
33153;BME280;19509;43.862;26.176;2023-04-30T01:48:32;100500.63;;;4.73;84.05
33153;BME280;19509;43.862;26.176;2023-04-30T01:50:34;100499.59;;;4.83;83.97
33153;BME280;19509;43.862;26.176;2023-04-30T01:53:05;100497.75;;;4.75;83.75
33153;BME280;19509;43.862;26.176;2023-04-30T01:55:47;100500.47;;;4.67;84.14
33153;BME280;19509;43.862;26.176;2023-04-30T01:58:15;100497.00;;;4.66;83.60
33153;BME280;19509;43.862;26.176;2023-04-30T02:00:41;100501.50;;;4.66;83.94
33153;BME280;19509;43.862;26.176;2023-04-30T02:03:06;100493.50;;;4.58;84.10
33153;BME280;19509;43.862;26.176;2023-04-30T02:05:32;100499.88;;;4.57;84.40
33153;BME280;19509;43.862;26.176;2023-04-30T02:07:58;100505.53;;;4.54;84.72
33153;BME280;19509;43.862;26.176;2023-04-30T02:10:25;100502.00;;;4.61;84.34
33153;BME280;19509;43.862;26.176;2023-04-30T02:12:51;100497.19;;;4.57;84.48
33153;BME280;19509;43.862;26.176;2023-04-30T02:15:18;100499.88;;;4.57;84.39
33153;BME280;19509;43.862;26.176;2023-04-30T02:17:43;100500.53;;;4.59;84.11
33153;BME280;19509;43.862;26.176;2023-04-30T02:20:09;100504.19;;;4.58;84.12
33153;BME280;19509;43.862;26.176;2023-04-30T02:22:35;100506.41;;;4.46;84.03
33153;BME280;19509;43.862;26.176;2023-04-30T02:25:02;100503.69;;;4.54;84.47
33153;BME280;19509;43.862;26.176;2023-04-30T02:27:31;100505.88;;;4.50;84.25
33153;BME280;19509;43.862;26.176;2023-04-30T02:29:57;100506.69;;;4.51;84.59
33153;BME280;19509;43.862;26.176;2023-04-30T02:32:23;100502.56;;;4.48;84.61
33153;BME280;19509;43.862;26.176;2023-04-30T02:34:48;100504.72;;;4.45;84.76
33153;BME280;19509;43.862;26.176;2023-04-30T02:37:14;100504.63;;;4.38;85.04
33153;BME280;19509;43.862;26.176;2023-04-30T02:39:40;100503.06;;;4.44;84.61
33153;BME280;19509;43.862;26.176;2023-04-30T02:42:06;100498.41;;;4.38;84.31
33153;BME280;19509;43.862;26.176;2023-04-30T02:44:32;100506.41;;;4.46;83.86
33153;BME280;19509;43.862;26.176;2023-04-30T02:46:58;100510.13;;;4.29;82.61
33153;BME280;19509;43.862;26.176;2023-04-30T02:49:24;100505.88;;;3.95;82.64
33153;BME280;19509;43.862;26.176;2023-04-30T02:51:49;100509.06;;;3.82;84.15
33153;BME280;19509;43.862;26.176;2023-04-30T02:54:15;100508.91;;;3.75;84.89
33153;BME280;19509;43.862;26.176;2023-04-30T02:56:41;100507.72;;;3.78;84.01
33153;BME280;19509;43.862;26.176;2023-04-30T02:59:08;100510.41;;;3.78;84.83
33153;BME280;19509;43.862;26.176;2023-04-30T03:01:34;100509.72;;;3.84;85.12
33153;BME280;19509;43.862;26.176;2023-04-30T03:03:59;100514.19;;;3.84;84.37
33153;BME280;19509;43.862;26.176;2023-04-30T03:06:24;100515.38;;;3.73;84.50
33153;BME280;19509;43.862;26.176;2023-04-30T03:08:50;100519.88;;;3.89;84.11
33153;BME280;19509;43.862;26.176;2023-04-30T03:11:16;100514.50;;;3.97;85.13
33153;BME280;19509;43.862;26.176;2023-04-30T03:13:42;100513.34;;;3.99;85.03
33153;BME280;19509;43.862;26.176;2023-04-30T03:16:08;100514.84;;;4.02;85.22
33153;BME280;19509;43.862;26.176;2023-04-30T03:18:33;100512.50;;;4.07;85.01
33153;BME280;19509;43.862;26.176;2023-04-30T03:20:59;100515.31;;;4.14;84.82
33153;BME280;19509;43.862;26.176;2023-04-30T03:23:27;100512.31;;;4.25;84.33
33153;BME280;19509;43.862;26.176;2023-04-30T03:25:53;100514.97;;;4.25;84.07
33153;BME280;19509;43.862;26.176;2023-04-30T03:28:18;100514.34;;;4.15;83.37
33153;BME280;19509;43.862;26.176;2023-04-30T03:30:44;100519.63;;;4.23;83.55
33153;BME280;19509;43.862;26.176;2023-04-30T03:33:09;100518.75;;;4.39;83.70
33153;BME280;19509;43.862;26.176;2023-04-30T03:35:35;100525.00;;;4.54;83.43
33153;BME280;19509;43.862;26.176;2023-04-30T03:38:01;100530.16;;;4.64;83.48
33153;BME280;19509;43.862;26.176;2023-04-30T03:40:26;100529.03;;;4.89;83.25
33153;BME280;19509;43.862;26.176;2023-04-30T03:42:52;100531.31;;;5.01;82.68
33153;BME280;19509;43.862;26.176;2023-04-30T03:45:18;100533.06;;;5.16;82.29
33153;BME280;19509;43.862;26.176;2023-04-30T03:47:43;100528.72;;;5.38;81.74
33153;BME280;19509;43.862;26.176;2023-04-30T03:50:09;100530.72;;;5.59;81.43
33153;BME280;19509;43.862;26.176;2023-04-30T03:52:36;100537.66;;;5.91;80.15
33153;BME280;19509;43.862;26.176;2023-04-30T03:55:02;100536.56;;;6.01;79.63
33153;BME280;19509;43.862;26.176;2023-04-30T03:57:28;100535.97;;;5.90;79.83
33153;BME280;19509;43.862;26.176;2023-04-30T03:59:54;100535.84;;;5.84;80.18
33153;BME280;19509;43.862;26.176;2023-04-30T04:02:19;100542.22;;;5.83;79.74
33153;BME280;19509;43.862;26.176;2023-04-30T04:04:46;100535.75;;;5.77;80.12
33153;BME280;19509;43.862;26.176;2023-04-30T04:07:11;100546.81;;;5.74;80.33
33153;BME280;19509;43.862;26.176;2023-04-30T04:09:37;100539.56;;;5.83;80.19
33153;BME280;19509;43.862;26.176;2023-04-30T04:12:03;100544.84;;;5.91;80.41
33153;BME280;19509;43.862;26.176;2023-04-30T04:14:29;100547.25;;;6.01;80.06
33153;BME280;19509;43.862;26.176;2023-04-30T04:16:55;100543.34;;;6.11;79.82
33153;BME280;19509;43.862;26.176;2023-04-30T04:19:22;100546.84;;;6.27;79.98
33153;BME280;19509;43.862;26.176;2023-04-30T04:21:48;100544.72;;;6.37;79.30
33153;BME280;19509;43.862;26.176;2023-04-30T04:24:13;100544.94;;;6.35;79.24
33153;BME280;19509;43.862;26.176;2023-04-30T04:26:39;100543.78;;;6.45;79.30
33153;BME280;19509;43.862;26.176;2023-04-30T04:29:05;100547.59;;;6.50;79.91
33153;BME280;19509;43.862;26.176;2023-04-30T04:31:33;100542.88;;;6.67;78.64
33153;BME280;19509;43.862;26.176;2023-04-30T04:33:59;100557.16;;;6.74;79.73
33153;BME280;19509;43.862;26.176;2023-04-30T04:36:26;100546.25;;;6.76;80.45
33153;BME280;19509;43.862;26.176;2023-04-30T04:38:53;100552.63;;;6.90;79.55
33153;BME280;19509;43.862;26.176;2023-04-30T04:41:19;100543.00;;;6.95;79.56
33153;BME280;19509;43.862;26.176;2023-04-30T04:43:45;100544.44;;;7.13;79.08
33153;BME280;19509;43.862;26.176;2023-04-30T04:46:10;100544.50;;;7.34;78.96
33153;BME280;19509;43.862;26.176;2023-04-30T04:48:36;100547.75;;;7.51;78.23
33153;BME280;19509;43.862;26.176;2023-04-30T04:51:01;100548.06;;;7.63;77.74
33153;BME280;19509;43.862;26.176;2023-04-30T04:53:26;100552.06;;;7.73;77.37
33153;BME280;19509;43.862;26.176;2023-04-30T04:55:52;100547.25;;;7.90;77.31
33153;BME280;19509;43.862;26.176;2023-04-30T04:58:17;100548.41;;;8.02;76.93
33153;BME280;19509;43.862;26.176;2023-04-30T05:00:43;100551.19;;;8.16;76.77
33153;BME280;19509;43.862;26.176;2023-04-30T05:03:09;100560.47;;;8.20;75.37
33153;BME280;19509;43.862;26.176;2023-04-30T05:05:35;100560.53;;;8.26;75.45
33153;BME280;19509;43.862;26.176;2023-04-30T05:08:00;100560.84;;;8.73;74.72
33153;BME280;19509;43.862;26.176;2023-04-30T05:10:26;100567.50;;;9.38;72.22
33153;BME280;19509;43.862;26.176;2023-04-30T05:12:52;100566.50;;;9.73;70.75
33153;BME280;19509;43.862;26.176;2023-04-30T05:15:17;100562.38;;;10.10;69.83
33153;BME280;19509;43.862;26.176;2023-04-30T05:17:43;100555.56;;;10.27;69.12
33153;BME280;19509;43.862;26.176;2023-04-30T05:20:09;100566.25;;;10.67;67.81
33153;BME280;19509;43.862;26.176;2023-04-30T05:22:35;100566.66;;;11.22;66.95
33153;BME280;19509;43.862;26.176;2023-04-30T05:25:00;100563.19;;;11.78;65.79
33153;BME280;19509;43.862;26.176;2023-04-30T05:27:26;100565.66;;;12.37;63.96
33153;BME280;19509;43.862;26.176;2023-04-30T05:29:51;100570.78;;;12.82;62.75
33153;BME280;19509;43.862;26.176;2023-04-30T05:32:17;100570.16;;;12.79;62.04
33153;BME280;19509;43.862;26.176;2023-04-30T05:34:43;100571.66;;;12.94;61.88
33153;BME280;19509;43.862;26.176;2023-04-30T05:37:08;100574.59;;;13.29;61.29
33153;BME280;19509;43.862;26.176;2023-04-30T05:39:34;100569.50;;;12.84;61.56
33153;BME280;19509;43.862;26.176;2023-04-30T05:41:59;100576.69;;;12.72;61.92
33153;BME280;19509;43.862;26.176;2023-04-30T05:44:26;100579.84;;;12.69;61.79
33153;BME280;19509;43.862;26.176;2023-04-30T05:46:54;100568.50;;;12.97;62.54
33153;BME280;19509;43.862;26.176;2023-04-30T05:49:20;100560.50;;;13.69;59.30
33153;BME280;19509;43.862;26.176;2023-04-30T05:51:45;100561.28;;;13.58;59.53
33153;BME280;19509;43.862;26.176;2023-04-30T05:54:11;100566.97;;;13.19;60.02
33153;BME280;19509;43.862;26.176;2023-04-30T05:56:36;100560.09;;;12.87;62.02
33153;BME280;19509;43.862;26.176;2023-04-30T05:59:02;100564.22;;;12.52;64.99
33153;BME280;19509;43.862;26.176;2023-04-30T06:01:27;100557.81;;;12.53;64.39
33153;BME280;19509;43.862;26.176;2023-04-30T06:03:54;100562.34;;;12.53;65.59
33153;BME280;19509;43.862;26.176;2023-04-30T06:06:19;100564.25;;;12.71;64.64
33153;BME280;19509;43.862;26.176;2023-04-30T06:08:45;100559.72;;;12.83;63.77
33153;BME280;19509;43.862;26.176;2023-04-30T06:11:11;100555.72;;;13.04;64.93
33153;BME280;19509;43.862;26.176;2023-04-30T06:13:38;100559.94;;;13.18;63.97
33153;BME280;19509;43.862;26.176;2023-04-30T06:16:04;100566.13;;;13.37;64.13
33153;BME280;19509;43.862;26.176;2023-04-30T06:18:29;100569.28;;;13.53;63.87
33153;BME280;19509;43.862;26.176;2023-04-30T06:20:55;100569.53;;;13.63;63.90
33153;BME280;19509;43.862;26.176;2023-04-30T06:23:21;100563.22;;;13.69;63.89
33153;BME280;19509;43.862;26.176;2023-04-30T06:25:46;100568.88;;;13.91;63.98
33153;BME280;19509;43.862;26.176;2023-04-30T06:28:12;100566.78;;;14.05;63.31
33153;BME280;19509;43.862;26.176;2023-04-30T06:30:38;100566.31;;;14.19;62.70
33153;BME280;19509;43.862;26.176;2023-04-30T06:33:03;100566.78;;;14.40;62.29
33153;BME280;19509;43.862;26.176;2023-04-30T06:35:29;100564.47;;;14.20;60.57
33153;BME280;19509;43.862;26.176;2023-04-30T06:37:54;100572.09;;;14.35;60.72
33153;BME280;19509;43.862;26.176;2023-04-30T06:40:20;100562.09;;;14.59;61.24
33153;BME280;19509;43.862;26.176;2023-04-30T06:42:45;100564.75;;;14.94;61.08
33153;BME280;19509;43.862;26.176;2023-04-30T06:45:11;100559.88;;;15.08;60.37
33153;BME280;19509;43.862;26.176;2023-04-30T06:47:39;100561.19;;;15.34;59.58
33153;BME280;19509;43.862;26.176;2023-04-30T06:50:07;100561.13;;;15.17;58.09
33153;BME280;19509;43.862;26.176;2023-04-30T06:52:33;100558.00;;;15.37;58.66
33153;BME280;19509;43.862;26.176;2023-04-30T06:54:59;100560.66;;;15.49;55.94
33153;BME280;19509;43.862;26.176;2023-04-30T06:57:25;100558.75;;;15.32;51.61
33153;BME280;19509;43.862;26.176;2023-04-30T06:59:52;100568.31;;;15.23;49.30
33153;BME280;19509;43.862;26.176;2023-04-30T07:02:17;100568.94;;;15.13;50.46
33153;BME280;19509;43.862;26.176;2023-04-30T07:04:43;100573.75;;;15.23;52.73
33153;BME280;19509;43.862;26.176;2023-04-30T07:07:09;100573.34;;;15.31;49.48
33153;BME280;19509;43.862;26.176;2023-04-30T07:09:34;100577.13;;;15.30;52.86
33153;BME280;19509;43.862;26.176;2023-04-30T07:12:01;100581.00;;;15.34;49.05
33153;BME280;19509;43.862;26.176;2023-04-30T07:14:27;100577.19;;;15.19;51.69
33153;BME280;19509;43.862;26.176;2023-04-30T07:16:52;100580.28;;;15.39;51.60
33153;BME280;19509;43.862;26.176;2023-04-30T07:19:18;100578.75;;;15.31;52.25
33153;BME280;19509;43.862;26.176;2023-04-30T07:21:44;100583.00;;;15.39;52.92
33153;BME280;19509;43.862;26.176;2023-04-30T07:24:10;100579.81;;;15.42;52.91
33153;BME280;19509;43.862;26.176;2023-04-30T07:26:36;100574.66;;;15.57;51.48
33153;BME280;19509;43.862;26.176;2023-04-30T07:29:03;100573.16;;;15.78;52.58
33153;BME280;19509;43.862;26.176;2023-04-30T07:31:29;100576.84;;;15.89;52.15
33153;BME280;19509;43.862;26.176;2023-04-30T07:33:54;100578.03;;;16.10;51.34
33153;BME280;19509;43.862;26.176;2023-04-30T07:36:20;100578.53;;;16.24;52.70
33153;BME280;19509;43.862;26.176;2023-04-30T07:38:46;100579.47;;;16.51;50.66
33153;BME280;19509;43.862;26.176;2023-04-30T07:41:12;100571.25;;;15.96;47.63
33153;BME280;19509;43.862;26.176;2023-04-30T07:43:38;100573.59;;;16.04;50.18
33153;BME280;19509;43.862;26.176;2023-04-30T07:46:03;100570.84;;;16.38;51.69
33153;BME280;19509;43.862;26.176;2023-04-30T07:48:29;100582.00;;;16.58;50.78
33153;BME280;19509;43.862;26.176;2023-04-30T07:50:55;100576.81;;;16.56;46.67
33153;BME280;19509;43.862;26.176;2023-04-30T07:53:22;100577.50;;;16.30;48.65
33153;BME280;19509;43.862;26.176;2023-04-30T07:55:47;100577.09;;;16.38;47.52
33153;BME280;19509;43.862;26.176;2023-04-30T07:58:13;100579.53;;;16.56;47.83
33153;BME280;19509;43.862;26.176;2023-04-30T08:00:39;100576.25;;;16.54;48.55
33153;BME280;19509;43.862;26.176;2023-04-30T08:03:04;100575.03;;;16.45;48.35
33153;BME280;19509;43.862;26.176;2023-04-30T08:05:30;100565.34;;;16.32;45.68
33153;BME280;19509;43.862;26.176;2023-04-30T08:07:55;100570.66;;;16.61;47.73
33153;BME280;19509;43.862;26.176;2023-04-30T08:10:21;100561.34;;;16.57;47.31
33153;BME280;19509;43.862;26.176;2023-04-30T08:12:46;100573.41;;;16.83;49.61
33153;BME280;19509;43.862;26.176;2023-04-30T08:15:12;100568.56;;;16.85;47.93
33153;BME280;19509;43.862;26.176;2023-04-30T08:17:37;100562.75;;;16.98;46.95
33153;BME280;19509;43.862;26.176;2023-04-30T08:20:04;100565.06;;;16.90;44.70
33153;BME280;19509;43.862;26.176;2023-04-30T08:22:30;100568.22;;;17.25;45.13
33153;BME280;19509;43.862;26.176;2023-04-30T08:24:55;100567.25;;;17.37;43.97
33153;BME280;19509;43.862;26.176;2023-04-30T08:27:22;100568.28;;;17.58;43.67
33153;BME280;19509;43.862;26.176;2023-04-30T08:29:48;100567.16;;;17.54;43.91
33153;BME280;19509;43.862;26.176;2023-04-30T08:32:13;100567.59;;;17.45;42.15
33153;BME280;19509;43.862;26.176;2023-04-30T08:34:38;100566.56;;;17.52;42.32
33153;BME280;19509;43.862;26.176;2023-04-30T08:37:07;100566.88;;;17.55;43.05
33153;BME280;19509;43.862;26.176;2023-04-30T08:39:33;100566.13;;;17.11;42.13
33153;BME280;19509;43.862;26.176;2023-04-30T08:42:02;100564.66;;;17.25;44.19
33153;BME280;19509;43.862;26.176;2023-04-30T08:44:29;100563.13;;;17.61;45.21
33153;BME280;19509;43.862;26.176;2023-04-30T08:46:56;100556.31;;;17.86;42.01
33153;BME280;19509;43.862;26.176;2023-04-30T08:49:24;100561.50;;;17.87;45.26
33153;BME280;19509;43.862;26.176;2023-04-30T08:51:50;100569.56;;;17.50;42.75
33153;BME280;19509;43.862;26.176;2023-04-30T08:54:17;100566.56;;;17.52;44.10
33153;BME280;19509;43.862;26.176;2023-04-30T08:56:46;100566.66;;;17.62;42.32
33153;BME280;19509;43.862;26.176;2023-04-30T08:59:12;100557.00;;;17.49;45.39
33153;BME280;19509;43.862;26.176;2023-04-30T09:01:37;100556.28;;;17.81;43.53
33153;BME280;19509;43.862;26.176;2023-04-30T09:04:04;100549.19;;;18.17;43.94
33153;BME280;19509;43.862;26.176;2023-04-30T09:06:29;100552.41;;;18.09;42.47
33153;BME280;19509;43.862;26.176;2023-04-30T09:08:55;100547.47;;;18.06;42.75
33153;BME280;19509;43.862;26.176;2023-04-30T09:11:27;100542.44;;;18.25;42.94
33153;BME280;19509;43.862;26.176;2023-04-30T09:13:57;100541.47;;;18.41;42.38
33153;BME280;19509;43.862;26.176;2023-04-30T09:16:23;100539.81;;;18.40;44.55
33153;BME280;19509;43.862;26.176;2023-04-30T09:18:49;100536.97;;;18.19;43.03
33153;BME280;19509;43.862;26.176;2023-04-30T09:21:15;100540.19;;;18.16;46.52
33153;BME280;19509;43.862;26.176;2023-04-30T09:23:55;100536.31;;;18.50;42.43
33153;BME280;19509;43.862;26.176;2023-04-30T09:26:25;100533.94;;;18.63;41.83
33153;BME280;19509;43.862;26.176;2023-04-30T09:28:55;100531.72;;;18.55;43.37
33153;BME280;19509;43.862;26.176;2023-04-30T09:31:21;100525.13;;;18.41;41.84
33153;BME280;19509;43.862;26.176;2023-04-30T09:33:47;100523.28;;;18.52;41.36
33153;BME280;19509;43.862;26.176;2023-04-30T09:36:13;100517.00;;;18.51;41.52
33153;BME280;19509;43.862;26.176;2023-04-30T09:38:38;100511.91;;;18.23;42.12
33153;BME280;19509;43.862;26.176;2023-04-30T09:41:04;100515.25;;;18.82;42.27
33153;BME280;19509;43.862;26.176;2023-04-30T09:43:30;100512.00;;;18.85;42.23
33153;BME280;19509;43.862;26.176;2023-04-30T09:45:58;100504.91;;;18.84;42.92
33153;BME280;19509;43.862;26.176;2023-04-30T09:48:25;100515.25;;;18.82;42.59
33153;BME280;19509;43.862;26.176;2023-04-30T09:50:52;100502.41;;;18.78;42.70
33153;BME280;19509;43.862;26.176;2023-04-30T09:53:18;100503.00;;;18.90;40.97
33153;BME280;19509;43.862;26.176;2023-04-30T09:55:48;100503.56;;;18.92;42.44
33153;BME280;19509;43.862;26.176;2023-04-30T09:58:15;100500.09;;;19.22;40.34
33153;BME280;19509;43.862;26.176;2023-04-30T10:00:42;100497.66;;;19.41;41.24
33153;BME280;19509;43.862;26.176;2023-04-30T10:03:12;100494.13;;;19.46;40.37
33153;BME280;19509;43.862;26.176;2023-04-30T10:05:56;100497.63;;;19.26;40.72
33153;BME280;19509;43.862;26.176;2023-04-30T10:08:24;100495.19;;;19.19;39.31
33153;BME280;19509;43.862;26.176;2023-04-30T10:10:58;100492.50;;;19.45;41.92
33153;BME280;19509;43.862;26.176;2023-04-30T10:13:30;100487.59;;;19.93;39.68
33153;BME280;19509;43.862;26.176;2023-04-30T10:15:58;100487.84;;;20.06;39.23
33153;BME280;19509;43.862;26.176;2023-04-30T10:18:35;100490.06;;;19.69;100.00
33153;BME280;19509;43.862;26.176;2023-04-30T10:21:02;100490.06;;;19.69;40.25
33153;BME280;19509;43.862;26.176;2023-04-30T10:23:36;100486.78;;;20.07;39.76
33153;BME280;19509;43.862;26.176;2023-04-30T10:26:02;100490.50;;;20.42;40.05
33153;BME280;19509;43.862;26.176;2023-04-30T10:28:28;100485.03;;;20.52;39.64
33153;BME280;19509;43.862;26.176;2023-04-30T10:30:55;100487.44;;;20.69;39.68
33153;BME280;19509;43.862;26.176;2023-04-30T10:33:24;100480.94;;;20.45;39.08
33153;BME280;19509;43.862;26.176;2023-04-30T10:35:59;100489.16;;;20.40;39.40
33153;BME280;19509;43.862;26.176;2023-04-30T10:38:29;100492.44;;;20.42;39.24
33153;BME280;19509;43.862;26.176;2023-04-30T10:40:58;100491.00;;;20.65;37.75
33153;BME280;19509;43.862;26.176;2023-04-30T10:43:26;100481.19;;;20.43;34.44
33153;BME280;19509;43.862;26.176;2023-04-30T10:45:56;100473.50;;;20.66;37.16
33153;BME280;19509;43.862;26.176;2023-04-30T10:48:22;100472.50;;;20.26;39.05
33153;BME280;19509;43.862;26.176;2023-04-30T10:50:56;100477.47;;;20.08;38.25
33153;BME280;19509;43.862;26.176;2023-04-30T10:53:21;100468.94;;;20.36;39.14
33153;BME280;19509;43.862;26.176;2023-04-30T10:55:59;100467.50;;;20.64;39.59
33153;BME280;19509;43.862;26.176;2023-04-30T10:58:32;100466.72;;;20.53;39.50
33153;BME280;19509;43.862;26.176;2023-04-30T11:03:30;100466.47;;;20.34;39.47
33153;BME280;19509;43.862;26.176;2023-04-30T11:05:57;100471.34;;;20.58;38.73
33153;BME280;19509;43.862;26.176;2023-04-30T11:08:37;100468.09;;;20.40;37.45
33153;BME280;19509;43.862;26.176;2023-04-30T11:11:03;100479.53;;;20.63;36.41
33153;BME280;19509;43.862;26.176;2023-04-30T11:16:05;100460.78;;;20.10;36.21
33153;BME280;19509;43.862;26.176;2023-04-30T11:18:31;100473.38;;;20.11;36.69
33153;BME280;19509;43.862;26.176;2023-04-30T11:20:56;100463.53;;;20.10;38.03
33153;BME280;19509;43.862;26.176;2023-04-30T11:23:23;100465.88;;;20.58;35.17
33153;BME280;19509;43.862;26.176;2023-04-30T11:25:53;100466.69;;;20.48;35.69
33153;BME280;19509;43.862;26.176;2023-04-30T11:28:25;100465.69;;;20.23;37.07
33153;BME280;19509;43.862;26.176;2023-04-30T11:33:21;100474.00;;;20.73;36.03
33153;BME280;19509;43.862;26.176;2023-04-30T11:35:48;100464.25;;;20.57;35.17
33153;BME280;19509;43.862;26.176;2023-04-30T11:38:18;100454.19;;;20.31;33.48
33153;BME280;19509;43.862;26.176;2023-04-30T11:40:45;100454.25;;;20.06;34.96
33153;BME280;19509;43.862;26.176;2023-04-30T11:43:32;100449.59;;;20.12;36.44
33153;BME280;19509;43.862;26.176;2023-04-30T11:46:05;100452.75;;;20.54;35.24
33153;BME280;19509;43.862;26.176;2023-04-30T11:48:32;100446.06;;;20.86;37.55
33153;BME280;19509;43.862;26.176;2023-04-30T11:50:58;100439.66;;;21.06;36.64
33153;BME280;19509;43.862;26.176;2023-04-30T11:53:27;100441.78;;;21.54;35.84
33153;BME280;19509;43.862;26.176;2023-04-30T11:55:53;100442.66;;;21.78;35.83
33153;BME280;19509;43.862;26.176;2023-04-30T11:58:20;100433.31;;;21.79;35.31
33153;BME280;19509;43.862;26.176;2023-04-30T12:00:46;63304.72;;;-144.22;31.78
33153;BME280;19509;43.862;26.176;2023-04-30T12:03:13;100428.00;;;21.24;36.38
33153;BME280;19509;43.862;26.176;2023-04-30T12:05:40;100428.00;;;21.24;36.38
33153;BME280;19509;43.862;26.176;2023-04-30T12:08:07;100442.19;;;21.37;35.78
33153;BME280;19509;43.862;26.176;2023-04-30T12:10:34;100426.06;;;21.30;35.81
33153;BME280;19509;43.862;26.176;2023-04-30T12:13:00;100435.75;;;21.12;37.94
33153;BME280;19509;43.862;26.176;2023-04-30T12:15:26;100420.03;;;21.33;37.12
33153;BME280;19509;43.862;26.176;2023-04-30T12:17:54;100423.84;;;21.32;35.92
33153;BME280;19509;43.862;26.176;2023-04-30T12:20:21;100430.84;;;21.09;34.28
33153;BME280;19509;43.862;26.176;2023-04-30T12:22:47;100423.88;;;20.93;35.75
33153;BME280;19509;43.862;26.176;2023-04-30T12:25:15;100419.91;;;21.09;37.03
33153;BME280;19509;43.862;26.176;2023-04-30T12:27:45;100426.41;;;21.58;36.53
33153;BME280;19509;43.862;26.176;2023-04-30T12:30:12;100416.00;;;21.84;33.78
33153;BME280;19509;43.862;26.176;2023-04-30T12:32:42;100418.38;;;21.95;34.63
33153;BME280;19509;43.862;26.176;2023-04-30T12:35:12;100413.66;;;22.01;34.58
33153;BME280;19509;43.862;26.176;2023-04-30T12:37:46;100413.03;;;22.04;33.79
33153;BME280;19509;43.862;26.176;2023-04-30T12:40:14;100411.91;;;21.57;32.60
33153;BME280;19509;43.862;26.176;2023-04-30T12:42:43;100397.47;;;21.76;35.14
33153;BME280;19509;43.862;26.176;2023-04-30T12:45:10;100400.75;;;21.48;35.51
33153;BME280;19509;43.862;26.176;2023-04-30T12:47:39;100401.31;;;21.75;33.37
33153;BME280;19509;43.862;26.176;2023-04-30T12:50:10;100390.53;;;21.83;32.92
33153;BME280;19509;43.862;26.176;2023-04-30T12:52:39;100390.25;;;21.85;34.25
33153;BME280;19509;43.862;26.176;2023-04-30T12:55:18;100396.22;;;21.63;33.30
33153;BME280;19509;43.862;26.176;2023-04-30T13:00:48;100383.69;;;21.57;34.41
33153;BME280;19509;43.862;26.176;2023-04-30T13:03:15;100389.44;;;21.60;35.37